sensor_id;sensor_type;location;lat;lon;timestamp;P1;durP1;ratioP1;P2;durP2;ratioP2
42226;SDS011;27892;52.378;13.122;2024-02-21T00:01:05;8.43;;;3.80;;
42226;SDS011;27892;52.378;13.122;2024-02-21T00:03:31;7.63;;;3.63;;
42226;SDS011;27892;52.378;13.122;2024-02-21T00:05:57;5.93;;;3.53;;
42226;SDS011;27892;52.378;13.122;2024-02-21T00:08:23;9.43;;;4.40;;
42226;SDS011;27892;52.378;13.122;2024-02-21T00:10:50;8.93;;;4.10;;
42226;SDS011;27892;52.378;13.122;2024-02-21T00:13:15;6.10;;;3.70;;
42226;SDS011;27892;52.378;13.122;2024-02-21T00:15:41;7.90;;;3.93;;
42226;SDS011;27892;52.378;13.122;2024-02-21T00:18:07;8.13;;;4.17;;
42226;SDS011;27892;52.378;13.122;2024-02-21T00:20:33;5.33;;;3.37;;
42226;SDS011;27892;52.378;13.122;2024-02-21T00:22:58;5.23;;;3.37;;
42226;SDS011;27892;52.378;13.122;2024-02-21T00:25:24;5.63;;;3.47;;
42226;SDS011;27892;52.378;13.122;2024-02-21T00:27:50;5.57;;;3.13;;
42226;SDS011;27892;52.378;13.122;2024-02-21T00:30:16;4.73;;;2.93;;
42226;SDS011;27892;52.378;13.122;2024-02-21T00:32:42;3.77;;;3.07;;
42226;SDS011;27892;52.378;13.122;2024-02-21T00:35:07;9.20;;;3.30;;
42226;SDS011;27892;52.378;13.122;2024-02-21T00:37:33;7.43;;;3.33;;
42226;SDS011;27892;52.378;13.122;2024-02-21T00:39:59;6.20;;;3.20;;
42226;SDS011;27892;52.378;13.122;2024-02-21T00:42:34;4.67;;;3.20;;
42226;SDS011;27892;52.378;13.122;2024-02-21T00:44:59;6.87;;;3.40;;
42226;SDS011;27892;52.378;13.122;2024-02-21T00:47:28;9.47;;;4.30;;
42226;SDS011;27892;52.378;13.122;2024-02-21T00:49:54;10.33;;;3.93;;
42226;SDS011;27892;52.378;13.122;2024-02-21T00:52:20;5.50;;;3.13;;
42226;SDS011;27892;52.378;13.122;2024-02-21T00:54:46;7.00;;;3.50;;
42226;SDS011;27892;52.378;13.122;2024-02-21T00:57:14;5.50;;;3.10;;
42226;SDS011;27892;52.378;13.122;2024-02-21T00:59:40;6.00;;;3.40;;
42226;SDS011;27892;52.378;13.122;2024-02-21T01:02:06;8.00;;;3.63;;
42226;SDS011;27892;52.378;13.122;2024-02-21T01:04:32;5.53;;;3.60;;
42226;SDS011;27892;52.378;13.122;2024-02-21T01:06:58;5.57;;;3.17;;
42226;SDS011;27892;52.378;13.122;2024-02-21T01:09:24;8.33;;;3.63;;
42226;SDS011;27892;52.378;13.122;2024-02-21T01:11:49;5.50;;;3.23;;
42226;SDS011;27892;52.378;13.122;2024-02-21T01:14:15;8.00;;;3.77;;
42226;SDS011;27892;52.378;13.122;2024-02-21T01:16:41;7.50;;;3.90;;
42226;SDS011;27892;52.378;13.122;2024-02-21T01:19:06;8.93;;;3.97;;
42226;SDS011;27892;52.378;13.122;2024-02-21T01:21:32;7.57;;;3.63;;
42226;SDS011;27892;52.378;13.122;2024-02-21T01:23:58;5.60;;;3.03;;
42226;SDS011;27892;52.378;13.122;2024-02-21T01:26:24;3.50;;;2.50;;
42226;SDS011;27892;52.378;13.122;2024-02-21T01:28:49;17.00;;;8.10;;
42226;SDS011;27892;52.378;13.122;2024-02-21T01:31:15;12.33;;;5.80;;
42226;SDS011;27892;52.378;13.122;2024-02-21T01:33:41;9.40;;;4.40;;
42226;SDS011;27892;52.378;13.122;2024-02-21T01:36:07;7.67;;;4.10;;
42226;SDS011;27892;52.378;13.122;2024-02-21T01:38:34;8.40;;;3.90;;
42226;SDS011;27892;52.378;13.122;2024-02-21T01:41:00;7.60;;;4.17;;
42226;SDS011;27892;52.378;13.122;2024-02-21T01:43:26;5.67;;;3.40;;
42226;SDS011;27892;52.378;13.122;2024-02-21T01:45:52;6.87;;;3.40;;
42226;SDS011;27892;52.378;13.122;2024-02-21T01:48:20;8.83;;;3.90;;
42226;SDS011;27892;52.378;13.122;2024-02-21T01:50:48;7.27;;;3.53;;
42226;SDS011;27892;52.378;13.122;2024-02-21T01:53:16;6.73;;;3.30;;
42226;SDS011;27892;52.378;13.122;2024-02-21T01:55:50;6.23;;;3.47;;
42226;SDS011;27892;52.378;13.122;2024-02-21T01:58:16;6.93;;;3.47;;
42226;SDS011;27892;52.378;13.122;2024-02-21T02:00:44;9.07;;;3.77;;
42226;SDS011;27892;52.378;13.122;2024-02-21T02:03:12;6.20;;;3.67;;
42226;SDS011;27892;52.378;13.122;2024-02-21T02:05:44;4.43;;;2.70;;
42226;SDS011;27892;52.378;13.122;2024-02-21T02:08:15;3.63;;;2.90;;
42226;SDS011;27892;52.378;13.122;2024-02-21T02:10:42;7.07;;;3.63;;
42226;SDS011;27892;52.378;13.122;2024-02-21T02:13:09;8.47;;;3.80;;
42226;SDS011;27892;52.378;13.122;2024-02-21T02:15:39;9.30;;;3.87;;
42226;SDS011;27892;52.378;13.122;2024-02-21T02:18:09;7.50;;;3.40;;
42226;SDS011;27892;52.378;13.122;2024-02-21T02:20:41;6.70;;;3.67;;
42226;SDS011;27892;52.378;13.122;2024-02-21T02:25:53;8.07;;;3.90;;
42226;SDS011;27892;52.378;13.122;2024-02-21T02:28:19;7.67;;;3.80;;
42226;SDS011;27892;52.378;13.122;2024-02-21T02:30:46;8.90;;;3.60;;
42226;SDS011;27892;52.378;13.122;2024-02-21T02:33:12;4.90;;;3.10;;
42226;SDS011;27892;52.378;13.122;2024-02-21T02:35:38;11.97;;;4.23;;
42226;SDS011;27892;52.378;13.122;2024-02-21T02:38:04;8.27;;;4.60;;
42226;SDS011;27892;52.378;13.122;2024-02-21T02:40:33;8.57;;;3.97;;
42226;SDS011;27892;52.378;13.122;2024-02-21T02:43:02;7.70;;;4.40;;
42226;SDS011;27892;52.378;13.122;2024-02-21T02:45:28;8.33;;;4.03;;
42226;SDS011;27892;52.378;13.122;2024-02-21T02:47:54;8.60;;;4.07;;
42226;SDS011;27892;52.378;13.122;2024-02-21T02:50:24;6.63;;;3.27;;
42226;SDS011;27892;52.378;13.122;2024-02-21T02:52:50;4.97;;;3.43;;
42226;SDS011;27892;52.378;13.122;2024-02-21T02:55:22;4.33;;;3.40;;
42226;SDS011;27892;52.378;13.122;2024-02-21T02:57:48;6.57;;;3.23;;
42226;SDS011;27892;52.378;13.122;2024-02-21T03:00:14;8.30;;;3.83;;
42226;SDS011;27892;52.378;13.122;2024-02-21T03:02:40;9.27;;;4.40;;
42226;SDS011;27892;52.378;13.122;2024-02-21T03:07:44;8.00;;;3.90;;
42226;SDS011;27892;52.378;13.122;2024-02-21T03:10:11;5.63;;;3.30;;
42226;SDS011;27892;52.378;13.122;2024-02-21T03:12:38;10.47;;;3.87;;
42226;SDS011;27892;52.378;13.122;2024-02-21T03:15:05;6.73;;;4.23;;
42226;SDS011;27892;52.378;13.122;2024-02-21T03:17:31;8.30;;;4.00;;
42226;SDS011;27892;52.378;13.122;2024-02-21T03:20:04;9.87;;;5.03;;
42226;SDS011;27892;52.378;13.122;2024-02-21T03:22:31;8.50;;;4.37;;
42226;SDS011;27892;52.378;13.122;2024-02-21T03:24:57;6.90;;;3.70;;
42226;SDS011;27892;52.378;13.122;2024-02-21T03:27:23;9.47;;;4.40;;
42226;SDS011;27892;52.378;13.122;2024-02-21T03:29:52;7.17;;;4.40;;
42226;SDS011;27892;52.378;13.122;2024-02-21T03:32:20;4.80;;;3.60;;
42226;SDS011;27892;52.378;13.122;2024-02-21T03:34:46;8.43;;;4.00;;
42226;SDS011;27892;52.378;13.122;2024-02-21T03:37:12;6.43;;;4.47;;
42226;SDS011;27892;52.378;13.122;2024-02-21T03:39:39;11.10;;;4.93;;
42226;SDS011;27892;52.378;13.122;2024-02-21T03:42:05;7.70;;;4.00;;
42226;SDS011;27892;52.378;13.122;2024-02-21T03:44:31;9.87;;;4.40;;
42226;SDS011;27892;52.378;13.122;2024-02-21T03:46:58;7.47;;;4.60;;
42226;SDS011;27892;52.378;13.122;2024-02-21T03:49:25;10.13;;;4.50;;
42226;SDS011;27892;52.378;13.122;2024-02-21T03:51:51;6.10;;;4.47;;
42226;SDS011;27892;52.378;13.122;2024-02-21T03:54:17;6.87;;;4.07;;
42226;SDS011;27892;52.378;13.122;2024-02-21T03:56:43;8.00;;;3.90;;
42226;SDS011;27892;52.378;13.122;2024-02-21T03:59:09;7.13;;;3.90;;
42226;SDS011;27892;52.378;13.122;2024-02-21T04:01:35;11.67;;;5.27;;
42226;SDS011;27892;52.378;13.122;2024-02-21T04:04:01;8.93;;;4.73;;
42226;SDS011;27892;52.378;13.122;2024-02-21T04:06:27;9.30;;;5.63;;
42226;SDS011;27892;52.378;13.122;2024-02-21T04:08:56;7.57;;;4.67;;
42226;SDS011;27892;52.378;13.122;2024-02-21T04:11:22;6.50;;;4.10;;
42226;SDS011;27892;52.378;13.122;2024-02-21T04:13:48;10.33;;;4.43;;
42226;SDS011;27892;52.378;13.122;2024-02-21T04:16:18;13.13;;;5.20;;
42226;SDS011;27892;52.378;13.122;2024-02-21T04:18:46;10.23;;;5.40;;
42226;SDS011;27892;52.378;13.122;2024-02-21T04:21:14;13.53;;;5.33;;
42226;SDS011;27892;52.378;13.122;2024-02-21T04:23:41;11.50;;;5.13;;
42226;SDS011;27892;52.378;13.122;2024-02-21T04:26:10;12.33;;;5.70;;
42226;SDS011;27892;52.378;13.122;2024-02-21T04:28:45;12.20;;;5.97;;
42226;SDS011;27892;52.378;13.122;2024-02-21T04:31:13;10.73;;;5.20;;
42226;SDS011;27892;52.378;13.122;2024-02-21T04:33:40;14.43;;;5.47;;
42226;SDS011;27892;52.378;13.122;2024-02-21T04:36:08;9.70;;;4.87;;
42226;SDS011;27892;52.378;13.122;2024-02-21T04:38:34;10.03;;;4.93;;
42226;SDS011;27892;52.378;13.122;2024-02-21T04:41:00;11.50;;;5.07;;
42226;SDS011;27892;52.378;13.122;2024-02-21T04:43:26;11.47;;;5.10;;
42226;SDS011;27892;52.378;13.122;2024-02-21T04:45:54;7.33;;;4.67;;
42226;SDS011;27892;52.378;13.122;2024-02-21T04:48:20;10.20;;;5.00;;
42226;SDS011;27892;52.378;13.122;2024-02-21T04:50:49;9.10;;;4.90;;
42226;SDS011;27892;52.378;13.122;2024-02-21T04:53:24;9.30;;;5.33;;
42226;SDS011;27892;52.378;13.122;2024-02-21T04:55:50;6.57;;;4.00;;
42226;SDS011;27892;52.378;13.122;2024-02-21T04:58:16;10.33;;;5.73;;
42226;SDS011;27892;52.378;13.122;2024-02-21T05:00:42;9.10;;;4.80;;
42226;SDS011;27892;52.378;13.122;2024-02-21T05:03:08;10.97;;;4.90;;
42226;SDS011;27892;52.378;13.122;2024-02-21T05:05:34;8.90;;;5.30;;
42226;SDS011;27892;52.378;13.122;2024-02-21T05:08:00;7.57;;;4.80;;
42226;SDS011;27892;52.378;13.122;2024-02-21T05:10:26;10.70;;;5.50;;
42226;SDS011;27892;52.378;13.122;2024-02-21T05:12:52;10.57;;;4.97;;
42226;SDS011;27892;52.378;13.122;2024-02-21T05:15:18;8.23;;;4.17;;
42226;SDS011;27892;52.378;13.122;2024-02-21T05:17:47;9.80;;;5.00;;
42226;SDS011;27892;52.378;13.122;2024-02-21T05:20:13;11.20;;;5.33;;
42226;SDS011;27892;52.378;13.122;2024-02-21T05:22:39;11.10;;;5.53;;
42226;SDS011;27892;52.378;13.122;2024-02-21T05:25:05;11.90;;;5.20;;
42226;SDS011;27892;52.378;13.122;2024-02-21T05:27:31;6.97;;;4.43;;
42226;SDS011;27892;52.378;13.122;2024-02-21T05:29:57;10.43;;;5.27;;
42226;SDS011;27892;52.378;13.122;2024-02-21T05:32:23;10.90;;;5.00;;
42226;SDS011;27892;52.378;13.122;2024-02-21T05:34:49;6.63;;;4.60;;
42226;SDS011;27892;52.378;13.122;2024-02-21T05:37:16;8.43;;;5.17;;
42226;SDS011;27892;52.378;13.122;2024-02-21T05:39:42;10.60;;;5.90;;
42226;SDS011;27892;52.378;13.122;2024-02-21T05:42:08;10.00;;;5.17;;
42226;SDS011;27892;52.378;13.122;2024-02-21T05:44:34;9.90;;;5.70;;
42226;SDS011;27892;52.378;13.122;2024-02-21T05:47:00;10.97;;;5.57;;
42226;SDS011;27892;52.378;13.122;2024-02-21T05:49:26;10.37;;;5.67;;
42226;SDS011;27892;52.378;13.122;2024-02-21T05:51:52;8.40;;;5.20;;
42226;SDS011;27892;52.378;13.122;2024-02-21T05:54:21;9.53;;;5.20;;
42226;SDS011;27892;52.378;13.122;2024-02-21T05:56:47;15.53;;;6.20;;
42226;SDS011;27892;52.378;13.122;2024-02-21T05:59:12;12.83;;;5.80;;
42226;SDS011;27892;52.378;13.122;2024-02-21T06:01:38;10.57;;;5.67;;
42226;SDS011;27892;52.378;13.122;2024-02-21T06:04:04;11.63;;;5.70;;
42226;SDS011;27892;52.378;13.122;2024-02-21T06:06:30;12.60;;;7.07;;
42226;SDS011;27892;52.378;13.122;2024-02-21T06:08:56;12.63;;;6.00;;
42226;SDS011;27892;52.378;13.122;2024-02-21T06:11:24;14.43;;;6.53;;
42226;SDS011;27892;52.378;13.122;2024-02-21T06:13:52;9.17;;;5.40;;
42226;SDS011;27892;52.378;13.122;2024-02-21T06:16:18;10.30;;;5.17;;
42226;SDS011;27892;52.378;13.122;2024-02-21T06:18:44;11.97;;;5.90;;
42226;SDS011;27892;52.378;13.122;2024-02-21T06:21:09;10.33;;;5.73;;
42226;SDS011;27892;52.378;13.122;2024-02-21T06:23:36;12.07;;;5.70;;
42226;SDS011;27892;52.378;13.122;2024-02-21T06:26:02;14.60;;;5.93;;
42226;SDS011;27892;52.378;13.122;2024-02-21T06:28:28;13.13;;;5.93;;
42226;SDS011;27892;52.378;13.122;2024-02-21T06:30:54;12.03;;;5.90;;
42226;SDS011;27892;52.378;13.122;2024-02-21T06:33:20;11.37;;;6.03;;
42226;SDS011;27892;52.378;13.122;2024-02-21T06:35:50;9.87;;;5.60;;
42226;SDS011;27892;52.378;13.122;2024-02-21T06:38:18;11.30;;;5.67;;
42226;SDS011;27892;52.378;13.122;2024-02-21T06:40:44;11.33;;;5.90;;
42226;SDS011;27892;52.378;13.122;2024-02-21T06:43:14;10.57;;;5.93;;
42226;SDS011;27892;52.378;13.122;2024-02-21T06:45:42;10.70;;;5.30;;
42226;SDS011;27892;52.378;13.122;2024-02-21T06:48:07;11.03;;;6.07;;
42226;SDS011;27892;52.378;13.122;2024-02-21T06:50:33;11.10;;;5.47;;
42226;SDS011;27892;52.378;13.122;2024-02-21T06:52:59;12.63;;;6.20;;
42226;SDS011;27892;52.378;13.122;2024-02-21T06:55:25;11.27;;;6.13;;
42226;SDS011;27892;52.378;13.122;2024-02-21T06:57:50;10.07;;;5.70;;
42226;SDS011;27892;52.378;13.122;2024-02-21T07:00:25;14.33;;;6.37;;
42226;SDS011;27892;52.378;13.122;2024-02-21T07:02:51;10.73;;;5.90;;
42226;SDS011;27892;52.378;13.122;2024-02-21T07:05:17;8.83;;;5.57;;
42226;SDS011;27892;52.378;13.122;2024-02-21T07:07:43;9.63;;;5.80;;
42226;SDS011;27892;52.378;13.122;2024-02-21T07:10:09;9.27;;;5.27;;
42226;SDS011;27892;52.378;13.122;2024-02-21T07:12:36;11.57;;;5.80;;
42226;SDS011;27892;52.378;13.122;2024-02-21T07:15:04;9.97;;;6.00;;
42226;SDS011;27892;52.378;13.122;2024-02-21T07:17:36;11.60;;;5.23;;
42226;SDS011;27892;52.378;13.122;2024-02-21T07:20:05;9.80;;;5.53;;
42226;SDS011;27892;52.378;13.122;2024-02-21T07:22:32;10.23;;;5.20;;
42226;SDS011;27892;52.378;13.122;2024-02-21T07:24:58;12.37;;;5.63;;
42226;SDS011;27892;52.378;13.122;2024-02-21T07:27:26;9.33;;;5.00;;
42226;SDS011;27892;52.378;13.122;2024-02-21T07:29:58;8.30;;;4.83;;
42226;SDS011;27892;52.378;13.122;2024-02-21T07:32:24;10.03;;;4.67;;
42226;SDS011;27892;52.378;13.122;2024-02-21T07:34:50;10.37;;;5.43;;
42226;SDS011;27892;52.378;13.122;2024-02-21T07:37:16;9.10;;;5.03;;
42226;SDS011;27892;52.378;13.122;2024-02-21T07:39:41;11.40;;;5.33;;
42226;SDS011;27892;52.378;13.122;2024-02-21T07:42:07;11.77;;;6.20;;
42226;SDS011;27892;52.378;13.122;2024-02-21T07:44:33;10.87;;;6.07;;
42226;SDS011;27892;52.378;13.122;2024-02-21T07:46:59;11.20;;;5.80;;
42226;SDS011;27892;52.378;13.122;2024-02-21T07:49:25;8.90;;;5.10;;
42226;SDS011;27892;52.378;13.122;2024-02-21T07:51:51;9.20;;;5.60;;
42226;SDS011;27892;52.378;13.122;2024-02-21T07:54:17;11.53;;;5.90;;
42226;SDS011;27892;52.378;13.122;2024-02-21T07:56:43;11.60;;;5.57;;
42226;SDS011;27892;52.378;13.122;2024-02-21T07:59:09;12.37;;;5.17;;
42226;SDS011;27892;52.378;13.122;2024-02-21T08:01:35;7.70;;;5.30;;
42226;SDS011;27892;52.378;13.122;2024-02-21T08:04:03;9.03;;;5.40;;
42226;SDS011;27892;52.378;13.122;2024-02-21T08:06:29;11.10;;;5.70;;
42226;SDS011;27892;52.378;13.122;2024-02-21T08:08:55;12.10;;;6.50;;
42226;SDS011;27892;52.378;13.122;2024-02-21T08:11:29;18.63;;;11.83;;
42226;SDS011;27892;52.378;13.122;2024-02-21T08:13:55;23.40;;;13.90;;
42226;SDS011;27892;52.378;13.122;2024-02-21T08:16:21;12.70;;;7.27;;
42226;SDS011;27892;52.378;13.122;2024-02-21T08:18:50;9.83;;;6.00;;
42226;SDS011;27892;52.378;13.122;2024-02-21T08:21:15;11.13;;;5.90;;
42226;SDS011;27892;52.378;13.122;2024-02-21T08:23:45;8.80;;;5.30;;
42226;SDS011;27892;52.378;13.122;2024-02-21T08:26:16;13.03;;;6.50;;
42226;SDS011;27892;52.378;13.122;2024-02-21T08:28:42;7.27;;;5.03;;
42226;SDS011;27892;52.378;13.122;2024-02-21T08:31:08;8.33;;;5.07;;
42226;SDS011;27892;52.378;13.122;2024-02-21T08:33:37;13.33;;;6.60;;
42226;SDS011;27892;52.378;13.122;2024-02-21T08:36:06;12.90;;;6.30;;
42226;SDS011;27892;52.378;13.122;2024-02-21T08:38:33;11.33;;;5.73;;
42226;SDS011;27892;52.378;13.122;2024-02-21T08:40:59;9.73;;;5.87;;
42226;SDS011;27892;52.378;13.122;2024-02-21T08:43:25;9.37;;;5.87;;
42226;SDS011;27892;52.378;13.122;2024-02-21T08:45:51;10.23;;;5.57;;
42226;SDS011;27892;52.378;13.122;2024-02-21T08:48:16;10.17;;;4.80;;
42226;SDS011;27892;52.378;13.122;2024-02-21T08:50:42;7.40;;;4.50;;
42226;SDS011;27892;52.378;13.122;2024-02-21T08:53:08;8.03;;;5.10;;
42226;SDS011;27892;52.378;13.122;2024-02-21T08:55:33;10.00;;;5.33;;
42226;SDS011;27892;52.378;13.122;2024-02-21T08:58:00;12.17;;;6.00;;
42226;SDS011;27892;52.378;13.122;2024-02-21T09:00:26;9.37;;;5.80;;
42226;SDS011;27892;52.378;13.122;2024-02-21T09:02:52;9.60;;;5.63;;
42226;SDS011;27892;52.378;13.122;2024-02-21T09:05:20;7.83;;;4.90;;
42226;SDS011;27892;52.378;13.122;2024-02-21T09:07:52;11.90;;;6.23;;
42226;SDS011;27892;52.378;13.122;2024-02-21T09:10:27;10.93;;;5.73;;
42226;SDS011;27892;52.378;13.122;2024-02-21T09:12:55;9.57;;;6.00;;
42226;SDS011;27892;52.378;13.122;2024-02-21T09:15:21;10.23;;;6.17;;
42226;SDS011;27892;52.378;13.122;2024-02-21T09:17:53;9.13;;;5.40;;
42226;SDS011;27892;52.378;13.122;2024-02-21T09:20:29;12.97;;;6.40;;
42226;SDS011;27892;52.378;13.122;2024-02-21T09:23:01;10.97;;;5.97;;
42226;SDS011;27892;52.378;13.122;2024-02-21T09:25:30;9.80;;;5.50;;
42226;SDS011;27892;52.378;13.122;2024-02-21T09:28:02;8.83;;;5.93;;
42226;SDS011;27892;52.378;13.122;2024-02-21T09:30:29;12.00;;;6.00;;
42226;SDS011;27892;52.378;13.122;2024-02-21T09:32:58;10.17;;;5.23;;
42226;SDS011;27892;52.378;13.122;2024-02-21T09:35:30;12.53;;;6.37;;
42226;SDS011;27892;52.378;13.122;2024-02-21T09:38:04;7.70;;;4.83;;
42226;SDS011;27892;52.378;13.122;2024-02-21T09:40:43;10.33;;;5.73;;
42226;SDS011;27892;52.378;13.122;2024-02-21T09:43:15;9.60;;;6.50;;
42226;SDS011;27892;52.378;13.122;2024-02-21T09:45:48;11.37;;;6.23;;
42226;SDS011;27892;52.378;13.122;2024-02-21T09:50:49;12.10;;;5.83;;
42226;SDS011;27892;52.378;13.122;2024-02-21T09:53:15;11.20;;;6.30;;
42226;SDS011;27892;52.378;13.122;2024-02-21T09:55:44;6.90;;;4.87;;
42226;SDS011;27892;52.378;13.122;2024-02-21T09:58:11;7.57;;;5.20;;
42226;SDS011;27892;52.378;13.122;2024-02-21T10:00:40;14.20;;;6.53;;
42226;SDS011;27892;52.378;13.122;2024-02-21T10:03:06;13.80;;;6.67;;
42226;SDS011;27892;52.378;13.122;2024-02-21T10:05:35;9.60;;;5.47;;
42226;SDS011;27892;52.378;13.122;2024-02-21T10:08:13;11.30;;;5.57;;
42226;SDS011;27892;52.378;13.122;2024-02-21T10:10:40;8.73;;;5.50;;
42226;SDS011;27892;52.378;13.122;2024-02-21T10:13:23;7.73;;;5.27;;
42226;SDS011;27892;52.378;13.122;2024-02-21T10:16:04;9.30;;;5.27;;
42226;SDS011;27892;52.378;13.122;2024-02-21T10:18:44;8.10;;;4.87;;
42226;SDS011;27892;52.378;13.122;2024-02-21T10:21:10;10.37;;;5.67;;
42226;SDS011;27892;52.378;13.122;2024-02-21T10:23:45;7.30;;;5.27;;
42226;SDS011;27892;52.378;13.122;2024-02-21T10:26:12;6.27;;;4.70;;
42226;SDS011;27892;52.378;13.122;2024-02-21T10:28:38;8.10;;;5.30;;
42226;SDS011;27892;52.378;13.122;2024-02-21T10:31:09;11.43;;;6.13;;
42226;SDS011;27892;52.378;13.122;2024-02-21T10:36:21;8.67;;;5.57;;
42226;SDS011;27892;52.378;13.122;2024-02-21T10:38:48;9.47;;;5.00;;
42226;SDS011;27892;52.378;13.122;2024-02-21T10:41:14;9.10;;;5.93;;
42226;SDS011;27892;52.378;13.122;2024-02-21T10:43:41;9.30;;;5.50;;
42226;SDS011;27892;52.378;13.122;2024-02-21T10:46:09;7.47;;;5.43;;
42226;SDS011;27892;52.378;13.122;2024-02-21T10:48:42;10.13;;;5.50;;
42226;SDS011;27892;52.378;13.122;2024-02-21T10:51:15;7.87;;;5.17;;
42226;SDS011;27892;52.378;13.122;2024-02-21T10:56:31;6.10;;;4.60;;
42226;SDS011;27892;52.378;13.122;2024-02-21T10:59:05;5.50;;;4.20;;
42226;SDS011;27892;52.378;13.122;2024-02-21T11:01:31;13.10;;;8.80;;
42226;SDS011;27892;52.378;13.122;2024-02-21T11:04:07;11.37;;;6.80;;
42226;SDS011;27892;52.378;13.122;2024-02-21T11:06:38;5.63;;;4.30;;
42226;SDS011;27892;52.378;13.122;2024-02-21T11:09:09;6.07;;;5.20;;
42226;SDS011;27892;52.378;13.122;2024-02-21T11:11:45;5.43;;;4.03;;
42226;SDS011;27892;52.378;13.122;2024-02-21T11:14:18;5.73;;;4.37;;
42226;SDS011;27892;52.378;13.122;2024-02-21T11:16:48;6.13;;;4.40;;
42226;SDS011;27892;52.378;13.122;2024-02-21T11:21:46;5.90;;;4.07;;
42226;SDS011;27892;52.378;13.122;2024-02-21T11:24:31;5.40;;;4.07;;
42226;SDS011;27892;52.378;13.122;2024-02-21T11:29:53;7.57;;;4.63;;
42226;SDS011;27892;52.378;13.122;2024-02-21T11:32:24;7.33;;;4.43;;
42226;SDS011;27892;52.378;13.122;2024-02-21T11:34:55;8.07;;;3.80;;
42226;SDS011;27892;52.378;13.122;2024-02-21T11:37:27;7.43;;;3.77;;
42226;SDS011;27892;52.378;13.122;2024-02-21T11:39:57;5.37;;;3.50;;
42226;SDS011;27892;52.378;13.122;2024-02-21T11:42:27;5.47;;;3.47;;
42226;SDS011;27892;52.378;13.122;2024-02-21T11:44:54;5.60;;;3.60;;
42226;SDS011;27892;52.378;13.122;2024-02-21T11:47:24;3.50;;;2.90;;
42226;SDS011;27892;52.378;13.122;2024-02-21T11:49:50;4.15;;;2.78;;
42226;SDS011;27892;52.378;13.122;2024-02-21T11:52:19;3.72;;;2.70;;
42226;SDS011;27892;52.378;13.122;2024-02-21T11:54:50;5.05;;;3.40;;
42226;SDS011;27892;52.378;13.122;2024-02-21T11:57:17;5.30;;;3.35;;
42226;SDS011;27892;52.378;13.122;2024-02-21T11:59:44;4.65;;;3.28;;
42226;SDS011;27892;52.378;13.122;2024-02-21T12:02:11;4.82;;;2.80;;
42226;SDS011;27892;52.378;13.122;2024-02-21T12:04:37;2.85;;;2.20;;
42226;SDS011;27892;52.378;13.122;2024-02-21T12:07:03;3.75;;;2.50;;
42226;SDS011;27892;52.378;13.122;2024-02-21T12:09:29;2.75;;;2.50;;
42226;SDS011;27892;52.378;13.122;2024-02-21T12:12:00;2.83;;;2.38;;
42226;SDS011;27892;52.378;13.122;2024-02-21T12:14:28;3.88;;;2.60;;
42226;SDS011;27892;52.378;13.122;2024-02-21T12:17:00;4.53;;;2.80;;
42226;SDS011;27892;52.378;13.122;2024-02-21T12:19:31;3.20;;;2.73;;
42226;SDS011;27892;52.378;13.122;2024-02-21T12:21:58;4.53;;;2.93;;
42226;SDS011;27892;52.378;13.122;2024-02-21T12:24:26;4.47;;;2.87;;
42226;SDS011;27892;52.378;13.122;2024-02-21T12:26:53;4.83;;;3.00;;
42226;SDS011;27892;52.378;13.122;2024-02-21T12:29:23;4.67;;;3.07;;
42226;SDS011;27892;52.378;13.122;2024-02-21T12:31:52;4.83;;;3.07;;
42226;SDS011;27892;52.378;13.122;2024-02-21T12:34:24;6.23;;;3.40;;
42226;SDS011;27892;52.378;13.122;2024-02-21T12:36:51;4.50;;;3.13;;
42226;SDS011;27892;52.378;13.122;2024-02-21T12:39:17;4.83;;;3.47;;
42226;SDS011;27892;52.378;13.122;2024-02-21T12:41:46;4.47;;;3.20;;
42226;SDS011;27892;52.378;13.122;2024-02-21T12:44:13;4.37;;;3.00;;
42226;SDS011;27892;52.378;13.122;2024-02-21T12:46:41;7.10;;;4.30;;
42226;SDS011;27892;52.378;13.122;2024-02-21T12:49:10;7.00;;;3.97;;
42226;SDS011;27892;52.378;13.122;2024-02-21T12:51:36;8.90;;;4.53;;
42226;SDS011;27892;52.378;13.122;2024-02-21T12:54:04;5.93;;;3.47;;
42226;SDS011;27892;52.378;13.122;2024-02-21T12:56:33;6.57;;;3.30;;
42226;SDS011;27892;52.378;13.122;2024-02-21T12:58:59;5.23;;;3.30;;
42226;SDS011;27892;52.378;13.122;2024-02-21T13:01:25;4.93;;;3.17;;
42226;SDS011;27892;52.378;13.122;2024-02-21T13:03:51;5.87;;;3.43;;
42226;SDS011;27892;52.378;13.122;2024-02-21T13:06:17;4.83;;;3.10;;
42226;SDS011;27892;52.378;13.122;2024-02-21T13:08:44;7.60;;;2.97;;
42226;SDS011;27892;52.378;13.122;2024-02-21T13:11:11;5.87;;;3.33;;
42226;SDS011;27892;52.378;13.122;2024-02-21T13:13:40;5.03;;;2.90;;
42226;SDS011;27892;52.378;13.122;2024-02-21T13:16:06;5.20;;;2.70;;
42226;SDS011;27892;52.378;13.122;2024-02-21T13:18:32;6.37;;;3.20;;
42226;SDS011;27892;52.378;13.122;2024-02-21T13:20:58;4.57;;;3.03;;
42226;SDS011;27892;52.378;13.122;2024-02-21T13:23:26;4.00;;;2.60;;
42226;SDS011;27892;52.378;13.122;2024-02-21T13:25:52;5.30;;;2.47;;
42226;SDS011;27892;52.378;13.122;2024-02-21T13:28:17;6.43;;;2.70;;
42226;SDS011;27892;52.378;13.122;2024-02-21T13:30:43;10.40;;;6.10;;
42226;SDS011;27892;52.378;13.122;2024-02-21T13:33:09;5.50;;;3.67;;
42226;SDS011;27892;52.378;13.122;2024-02-21T13:35:35;6.80;;;3.60;;
42226;SDS011;27892;52.378;13.122;2024-02-21T13:38:01;4.10;;;2.80;;
42226;SDS011;27892;52.378;13.122;2024-02-21T13:40:28;3.23;;;2.40;;
42226;SDS011;27892;52.378;13.122;2024-02-21T13:42:53;6.27;;;2.90;;
42226;SDS011;27892;52.378;13.122;2024-02-21T13:45:19;4.87;;;2.57;;
42226;SDS011;27892;52.378;13.122;2024-02-21T13:47:45;4.43;;;2.70;;
42226;SDS011;27892;52.378;13.122;2024-02-21T13:50:13;2.73;;;2.50;;
42226;SDS011;27892;52.378;13.122;2024-02-21T13:52:40;3.73;;;2.40;;
42226;SDS011;27892;52.378;13.122;2024-02-21T13:55:06;2.50;;;1.97;;
42226;SDS011;27892;52.378;13.122;2024-02-21T13:57:38;3.47;;;2.30;;
42226;SDS011;27892;52.378;13.122;2024-02-21T14:00:04;4.70;;;2.20;;
42226;SDS011;27892;52.378;13.122;2024-02-21T14:02:30;3.57;;;2.47;;
42226;SDS011;27892;52.378;13.122;2024-02-21T14:04:56;6.63;;;3.60;;
42226;SDS011;27892;52.378;13.122;2024-02-21T14:07:22;4.80;;;3.10;;
42226;SDS011;27892;52.378;13.122;2024-02-21T14:09:48;4.30;;;3.23;;
42226;SDS011;27892;52.378;13.122;2024-02-21T14:12:13;3.73;;;2.90;;
42226;SDS011;27892;52.378;13.122;2024-02-21T14:14:42;4.27;;;2.57;;
42226;SDS011;27892;52.378;13.122;2024-02-21T14:17:09;5.60;;;3.27;;
42226;SDS011;27892;52.378;13.122;2024-02-21T14:19:35;3.63;;;2.53;;
42226;SDS011;27892;52.378;13.122;2024-02-21T14:22:00;4.10;;;2.47;;
42226;SDS011;27892;52.378;13.122;2024-02-21T14:24:27;5.17;;;2.70;;
42226;SDS011;27892;52.378;13.122;2024-02-21T14:26:53;2.93;;;2.40;;
42226;SDS011;27892;52.378;13.122;2024-02-21T14:29:20;2.97;;;2.27;;
42226;SDS011;27892;52.378;13.122;2024-02-21T14:31:46;7.33;;;4.70;;
42226;SDS011;27892;52.378;13.122;2024-02-21T14:34:12;6.60;;;3.67;;
42226;SDS011;27892;52.378;13.122;2024-02-21T14:36:38;4.83;;;3.30;;
42226;SDS011;27892;52.378;13.122;2024-02-21T14:39:03;4.80;;;2.80;;
42226;SDS011;27892;52.378;13.122;2024-02-21T14:41:30;4.20;;;3.03;;
42226;SDS011;27892;52.378;13.122;2024-02-21T14:43:55;4.00;;;2.40;;
42226;SDS011;27892;52.378;13.122;2024-02-21T14:46:25;3.83;;;2.80;;
42226;SDS011;27892;52.378;13.122;2024-02-21T14:48:54;5.10;;;2.80;;
42226;SDS011;27892;52.378;13.122;2024-02-21T14:51:20;3.67;;;2.50;;